Time;durP1;ratioP1;P1;durP2;ratioP2;P2;SDS_P1;SDS_P2;PMS_P1;PMS_P2;Temp;Humidity;BMP_temperature;BMP_pressure;BME280_temperature;BME280_humidity;BME280_pressure;Samples;Min_cycle;Max_cycle;Signal;HPM_P1;HPM_P2
2021/01/31 00:01:35;;;;;;;2.53;2.33;;;-3.30;99.90;;;;;;4948489;28;20243;-87
2021/01/31 00:04:01;;;;;;;2.03;1.93;;;-3.30;99.90;;;;;;4966176;28;20207;-87
2021/01/31 00:06:27;;;;;;;3.27;2.97;;;-3.20;99.90;;;;;;4985516;28;20204;-87
2021/01/31 00:08:53;;;;;;;2.23;1.87;;;-3.20;99.90;;;;;;4964683;28;20216;-87
2021/01/31 00:11:18;;;;;;;1.93;1.83;;;-3.30;99.90;;;;;;4966049;28;20347;-87
2021/01/31 00:13:45;;;;;;;3.83;2.57;;;-3.40;99.90;;;;;;4981322;28;20219;-87
2021/01/31 00:16:11;;;;;;;5.30;4.13;;;-3.50;99.90;;;;;;4949075;28;20271;-89
2021/01/31 00:18:37;;;;;;;2.63;2.50;;;-3.50;99.90;;;;;;4928194;28;20542;-87
2021/01/31 00:21:03;;;;;;;4.47;2.37;;;-3.60;99.90;;;;;;4965567;28;20220;-87
2021/01/31 00:23:30;;;;;;;2.93;2.77;;;-3.60;99.90;;;;;;4965795;28;20230;-89
2021/01/31 00:25:55;;;;;;;3.67;3.47;;;-3.70;99.90;;;;;;4948588;28;20220;-87
2021/01/31 00:28:23;;;;;;;6.17;2.63;;;-3.70;99.90;;;;;;4964585;28;20810;-86
2021/01/31 00:30:50;;;;;;;3.20;2.87;;;-3.60;99.90;;;;;;4965193;28;20200;-88
2021/01/31 00:33:18;;;;;;;2.53;2.33;;;-3.60;99.90;;;;;;4967037;28;20192;-88
2021/01/31 00:35:45;;;;;;;6.03;5.10;;;-3.60;99.90;;;;;;4982771;28;20220;-86
2021/01/31 00:38:13;;;;;;;8.93;3.07;;;-3.60;99.90;;;;;;4966222;28;20247;-87
2021/01/31 00:40:39;;;;;;;4.33;4.03;;;-3.60;99.90;;;;;;4965357;28;20216;-88
2021/01/31 00:43:06;;;;;;;2.23;2.03;;;-3.60;99.90;;;;;;4948206;28;20235;-88
2021/01/31 00:45:32;;;;;;;2.53;2.43;;;-3.60;99.90;;;;;;4983523;28;20239;-88
2021/01/31 00:47:58;;;;;;;3.03;2.90;;;-3.50;99.90;;;;;;4963695;28;21264;-88
2021/01/31 00:50:33;;;;;;;4.07;3.47;;;-3.40;99.90;;;;;;4964818;28;20228;-87
2021/01/31 00:52:59;;;;;;;2.00;1.90;;;-3.40;99.90;;;;;;4960124;28;20272;-87
2021/01/31 00:55:25;;;;;;;2.70;2.50;;;-3.40;99.90;;;;;;4944044;28;20374;-90
2021/01/31 00:57:51;;;;;;;7.07;4.53;;;-3.50;99.90;;;;;;4973727;28;20343;-87
2021/01/31 01:00:28;;;;;;;3.20;3.03;;;-3.50;99.90;;;;;;4977575;28;20198;-88
2021/01/31 01:02:53;;;;;;;2.63;2.43;;;-3.50;99.90;;;;;;4976908;28;20267;-88
2021/01/31 01:05:22;;;;;;;3.70;2.40;;;-3.60;99.90;;;;;;4959891;28;20331;-87
2021/01/31 01:07:48;;;;;;;3.80;3.53;;;-3.60;99.90;;;;;;4975951;28;20219;-88
2021/01/31 01:10:20;;;;;;;3.40;3.20;;;-3.40;99.90;;;;;;4962194;28;20216;-88
2021/01/31 01:12:46;;;;;;;5.27;4.90;;;-3.40;99.90;;;;;;4962553;28;20189;-86
2021/01/31 01:15:15;;;;;;;3.33;3.10;;;-3.40;99.90;;;;;;4962421;28;20216;-87
2021/01/31 01:17:42;;;;;;;2.73;2.63;;;-3.40;99.90;;;;;;4961584;28;20227;-88
2021/01/31 01:20:09;;;;;;;2.43;2.27;;;-3.40;99.90;;;;;;4976990;28;20257;-88
2021/01/31 01:22:35;;;;;;;3.57;3.27;;;-3.40;99.90;;;;;;4975773;28;20232;-87
2021/01/31 01:25:04;;;;;;;2.60;2.43;;;-3.40;99.90;;;;;;4977783;28;20196;-88
2021/01/31 01:27:30;;;;;;;6.67;3.17;;;-3.50;99.90;;;;;;4963519;28;20173;-88
2021/01/31 01:29:57;;;;;;;3.37;3.17;;;-3.50;99.90;;;;;;4945637;28;20216;-88
2021/01/31 01:32:22;;;;;;;4.60;4.30;;;-3.60;99.90;;;;;;4976880;28;20743;-90
2021/01/31 01:34:48;;;;;;;2.33;2.13;;;-3.70;99.90;;;;;;4960762;28;20706;-87
2021/01/31 01:37:14;;;;;;;3.33;3.13;;;-3.80;99.90;;;;;;4960689;28;20646;-87
2021/01/31 01:39:40;;;;;;;3.70;3.37;;;-3.90;99.90;;;;;;4963115;28;20261;-87
2021/01/31 01:42:10;;;;;;;4.70;4.10;;;-4.00;99.90;;;;;;4962812;28;20216;-89
2021/01/31 01:44:37;;;;;;;4.60;3.33;;;-4.10;99.90;;;;;;4961322;28;20239;-87
2021/01/31 01:47:08;;;;;;;2.83;2.07;;;-4.10;99.90;;;;;;4960435;28;20228;-87
2021/01/31 01:49:37;;;;;;;1.87;1.83;;;-4.10;99.90;;;;;;4977100;28;20220;-88
2021/01/31 01:52:08;;;;;;;3.93;3.73;;;-4.20;99.90;;;;;;4959652;28;20664;-86
2021/01/31 01:54:38;;;;;;;4.00;3.03;;;-4.30;99.90;;;;;;4961838;28;20275;-87
2021/01/31 01:57:09;;;;;;;2.27;2.17;;;-4.40;99.90;;;;;;4961351;28;20216;-88
2021/01/31 01:59:37;;;;;;;2.63;2.43;;;-4.50;99.90;;;;;;4960728;28;20208;-87
2021/01/31 02:02:12;;;;;;;0.80;0.80;;;-4.60;99.90;;;;;;4960624;28;20235;-88
2021/01/31 02:04:37;;;;;;;2.90;2.70;;;-4.50;99.90;;;;;;4961918;28;20228;-89
2021/01/31 02:07:04;;;;;;;4.37;1.23;;;-4.50;99.90;;;;;;4943533;28;20228;-87
2021/01/31 02:09:31;;;;;;;4.13;2.93;;;-4.50;99.90;;;;;;4962392;28;20192;-87
2021/01/31 02:12:00;;;;;;;2.73;2.53;;;-4.30;99.90;;;;;;4961175;28;20772;-90
2021/01/31 02:14:27;;;;;;;7.27;3.40;;;-4.20;99.90;;;;;;4961529;28;20243;-87
2021/01/31 02:16:59;;;;;;;3.97;3.77;;;-4.40;99.90;;;;;;4975730;28;20228;-87
2021/01/31 02:19:43;;;;;;;5.30;3.03;;;-4.60;99.90;;;;;;4961319;28;20781;-88
2021/01/31 02:22:25;;;;;;;3.97;3.17;;;-4.70;99.90;;;;;;4960717;28;20228;-87
2021/01/31 02:25:08;;;;;;;2.73;1.80;;;-4.70;99.90;;;;;;4958705;28;20191;-89
2021/01/31 02:28:18;;;;;;;2.63;2.30;;;-4.70;99.90;;;;;;4959772;28;20205;-86
2021/01/31 02:31:21;;;;;;;1.20;1.20;;;-4.80;99.90;;;;;;4938606;28;20331;-87
2021/01/31 02:34:12;;;;;;;1.67;1.57;;;-4.80;99.90;;;;;;4963038;28;20570;-89
2021/01/31 02:37:26;;;;;;;2.00;1.90;;;-4.80;99.90;;;;;;4966930;28;20677;-87
2021/01/31 02:40:07;;;;;;;3.60;2.33;;;-4.80;99.90;;;;;;4946347;28;20222;-88
2021/01/31 02:42:39;;;;;;;1.90;1.87;;;-4.70;99.90;;;;;;4981048;28;20195;-87
2021/01/31 02:45:21;;;;;;;2.07;1.97;;;-4.70;99.90;;;;;;4965189;28;20965;-87
2021/01/31 02:48:17;;;;;;;1.13;1.13;;;-4.70;99.90;;;;;;4980622;28;20220;-87
2021/01/31 02:50:46;;;;;;;2.23;0.80;;;-4.70;99.90;;;;;;4965029;28;20308;-88
2021/01/31 02:53:22;;;;;;;2.47;2.20;;;-4.90;99.90;;;;;;4964945;28;20267;-87
2021/01/31 02:55:54;;;;;;;2.47;2.27;;;-5.00;99.90;;;;;;4965271;28;20230;-88
2021/01/31 02:58:25;;;;;;;1.13;1.13;;;-5.00;99.90;;;;;;4962056;28;20224;-86
2021/01/31 03:01:03;;;;;;;2.10;2.00;;;-4.90;99.90;;;;;;4963680;28;20185;-88
2021/01/31 03:03:36;;;;;;;1.27;1.23;;;-4.90;99.90;;;;;;4981487;28;20252;-87
2021/01/31 03:06:06;;;;;;;1.87;1.77;;;-5.00;99.90;;;;;;4962646;28;20231;-87
2021/01/31 03:09:05;;;;;;;3.63;2.83;;;-5.10;99.90;;;;;;4964595;28;20219;-88
2021/01/31 03:11:38;;;;;;;2.50;1.53;;;-5.20;99.90;;;;;;4937463;28;20290;-87
2021/01/31 03:14:06;;;;;;;2.33;2.23;;;-5.30;99.90;;;;;;4963267;28;20286;-87
2021/01/31 03:16:49;;;;;;;3.37;2.00;;;-5.30;99.90;;;;;;4962943;28;20331;-88
2021/01/31 03:19:49;;;;;;;3.20;3.03;;;-5.30;99.90;;;;;;4963073;28;20267;-89
2021/01/31 03:22:26;;;;;;;2.80;2.60;;;-5.30;99.90;;;;;;4962824;28;20670;-89
2021/01/31 03:25:00;;;;;;;3.70;1.67;;;-5.30;99.90;;;;;;4962959;28;20240;-87
2021/01/31 03:27:38;;;;;;;2.33;2.13;;;-5.30;99.90;;;;;;4964705;28;20188;-88
2021/01/31 03:30:06;;;;;;;1.53;1.43;;;-5.30;99.90;;;;;;4963257;28;20233;-87
2021/01/31 03:32:58;;;;;;;1.03;1.03;;;-5.30;99.90;;;;;;4963423;28;20221;-88
2021/01/31 03:35:29;;;;;;;1.90;1.80;;;-5.20;99.90;;;;;;4962883;28;20252;-88
2021/01/31 03:38:05;;;;;;;3.00;2.77;;;-5.20;99.90;;;;;;4980123;28;21229;-87
2021/01/31 03:40:31;;;;;;;1.00;1.00;;;-5.10;99.90;;;;;;4963729;28;20212;-88
2021/01/31 03:42:57;;;;;;;0.70;0.70;;;-5.10;99.90;;;;;;4965061;28;20876;-89
2021/01/31 03:45:28;;;;;;;2.00;1.90;;;-5.10;99.90;;;;;;4964327;28;20185;-88
2021/01/31 03:48:01;;;;;;;2.27;2.17;;;-5.20;99.90;;;;;;4963244;28;20258;-89
2021/01/31 03:50:27;;;;;;;2.70;2.50;;;-5.10;99.90;;;;;;4963290;28;20236;-89
2021/01/31 03:52:53;;;;;;;5.87;3.00;;;-5.10;99.90;;;;;;4963441;28;20219;-88
2021/01/31 03:55:18;;;;;;;2.90;2.80;;;-5.10;99.90;;;;;;4963216;28;20228;-87
2021/01/31 03:57:56;;;;;;;2.80;1.97;;;-5.10;99.90;;;;;;4960879;28;20570;-89
2021/01/31 04:00:39;;;;;;;2.67;2.03;;;-5.10;99.90;;;;;;4979848;28;20188;-89
2021/01/31 04:03:20;;;;;;;3.90;2.93;;;-5.10;99.90;;;;;;4962319;28;20260;-90
2021/01/31 04:05:57;;;;;;;5.73;2.57;;;-5.10;99.90;;;;;;4964290;28;20208;-88
2021/01/31 04:08:24;;;;;;;3.60;3.27;;;-5.20;99.90;;;;;;4962491;28;20266;-88
2021/01/31 04:10:50;;;;;;;2.73;1.43;;;-5.20;99.90;;;;;;4962286;28;20213;-88
2021/01/31 04:13:18;;;;;;;3.27;2.67;;;-5.20;99.90;;;;;;4960892;28;20638;-88
2021/01/31 04:15:51;;;;;;;2.87;1.50;;;-5.20;99.90;;;;;;4961926;28;20216;-88
2021/01/31 04:18:17;;;;;;;3.03;2.83;;;-5.20;99.90;;;;;;4964421;28;20970;-87
2021/01/31 04:20:43;;;;;;;0.70;0.70;;;-5.30;99.90;;;;;;4960272;28;20216;-88
2021/01/31 04:23:09;;;;;;;2.07;1.97;;;-5.40;99.90;;;;;;4960026;28;20227;-89
2021/01/31 04:25:35;;;;;;;1.03;1.03;;;-5.50;99.90;;;;;;4942995;28;20224;-88
2021/01/31 04:28:10;;;;;;;2.10;2.00;;;-5.40;99.90;;;;;;4942336;28;20188;-88
2021/01/31 04:30:39;;;;;;;3.67;3.37;;;-5.30;99.90;;;;;;4960633;28;20191;-88
2021/01/31 04:33:06;;;;;;;5.30;3.50;;;-5.30;99.90;;;;;;4961869;28;20220;-88
2021/01/31 04:35:32;;;;;;;2.20;2.10;;;-5.20;99.90;;;;;;4946004;28;20245;-89
2021/01/31 04:37:59;;;;;;;1.57;1.57;;;-5.20;99.90;;;;;;4959486;28;20307;-89
2021/01/31 04:40:25;;;;;;;1.17;1.10;;;-5.10;99.90;;;;;;4959134;28;20228;-88
2021/01/31 04:42:51;;;;;;;4.10;3.53;;;-5.00;99.90;;;;;;4974807;28;20386;-88
2021/01/31 04:45:18;;;;;;;1.33;1.33;;;-5.10;99.90;;;;;;4937393;28;20197;-92
2021/01/31 04:48:22;;;;;;;2.00;1.63;;;-5.10;99.90;;;;;;4960997;28;20228;-88
2021/01/31 04:51:22;;;;;;;1.07;1.07;;;-5.00;99.90;;;;;;4951200;28;20698;-89
2021/01/31 04:54:05;;;;;;;2.23;2.07;;;-5.10;99.90;;;;;;4961900;28;20723;-88
2021/01/31 04:57:32;;;;;;;3.93;3.73;;;-5.10;99.90;;;;;;4961534;28;20705;-90
2021/01/31 05:00:00;;;;;;;3.80;3.43;;;-5.10;99.90;;;;;;4884821;29;21023;-88
2021/01/31 05:02:34;;;;;;;2.73;2.43;;;-5.00;99.90;;;;;;4902251;29;20370;-90
2021/01/31 05:05:00;;;;;;;3.13;3.03;;;-5.00;99.90;;;;;;4943077;28;20212;-90
2021/01/31 05:07:50;;;;;;;2.50;2.30;;;-5.00;99.90;;;;;;4962131;28;20719;-91
2021/01/31 05:10:15;;;;;;;1.60;1.30;;;-5.00;99.90;;;;;;4962792;28;20949;-88
2021/01/31 05:13:08;;;;;;;2.10;2.00;;;-5.00;99.90;;;;;;4947378;28;20200;-88
2021/01/31 05:15:57;;;;;;;2.43;2.33;;;-5.00;99.90;;;;;;4961552;28;20232;-88
2021/01/31 05:18:24;;;;;;;6.13;3.03;;;-5.10;99.90;;;;;;4962675;28;20240;-89
2021/01/31 05:20:57;;;;;;;3.33;2.43;;;-5.20;99.90;;;;;;4961278;28;20274;-89
2021/01/31 05:23:23;;;;;;;1.27;1.27;;;-5.20;99.90;;;;;;4960112;28;21083;-89
2021/01/31 05:25:49;;;;;;;10.00;3.50;;;-5.20;99.90;;;;;;4945555;28;20259;-91
2021/01/31 05:28:14;;;;;;;2.10;1.23;;;-5.20;99.90;;;;;;4961502;28;20212;-89
2021/01/31 05:30:42;;;;;;;2.37;2.27;;;-5.20;99.90;;;;;;4963423;28;20311;-88
2021/01/31 05:33:13;;;;;;;2.00;1.90;;;-5.10;99.90;;;;;;4961198;28;20221;-92
2021/01/31 05:35:51;;;;;;;1.60;1.47;;;-5.10;99.90;;;;;;4976800;28;20231;-89
2021/01/31 05:38:37;;;;;;;3.33;3.13;;;-5.10;99.90;;;;;;4977727;28;20224;-90
2021/01/31 05:41:42;;;;;;;1.73;1.73;;;-5.00;99.90;;;;;;4962274;28;20216;-90
2021/01/31 05:44:14;;;;;;;4.80;2.03;;;-5.00;99.90;;;;;;4961232;28;20767;-90
2021/01/31 05:46:53;;;;;;;2.67;2.57;;;-5.00;99.90;;;;;;4977722;28;20217;-90
2021/01/31 05:49:40;;;;;;;1.33;1.33;;;-4.90;99.90;;;;;;4961569;28;20259;-89
2021/01/31 05:52:21;;;;;;;1.67;1.60;;;-4.90;99.90;;;;;;4961431;28;20251;-89
2021/01/31 05:54:49;;;;;;;3.87;3.47;;;-4.80;99.90;;;;;;4961269;28;20751;-88
2021/01/31 05:57:27;;;;;;;1.50;0.93;;;-4.80;99.90;;;;;;4961453;28;20189;-88
2021/01/31 05:59:53;;;;;;;3.17;2.97;;;-4.80;99.90;;;;;;4961517;28;20228;-89
2021/01/31 06:02:25;;;;;;;4.57;1.73;;;-4.80;99.90;;;;;;4961815;28;20240;-88
2021/01/31 06:05:12;;;;;;;4.43;2.23;;;-4.70;99.90;;;;;;4977140;28;20247;-88
2021/01/31 06:07:40;;;;;;;1.00;0.90;;;-4.70;99.90;;;;;;4959809;28;20223;-89
2021/01/31 06:10:23;;;;;;;1.17;1.07;;;-4.60;99.90;;;;;;4960469;28;20224;-91
2021/01/31 06:12:50;;;;;;;1.43;1.33;;;-4.60;99.90;;;;;;4944553;28;20181;-88
2021/01/31 06:15:25;;;;;;;3.60;3.30;;;-4.60;99.90;;;;;;4961941;28;20252;-88
2021/01/31 06:18:24;;;;;;;1.90;1.80;;;-4.50;99.90;;;;;;4961064;28;20274;-88
2021/01/31 06:20:50;;;;;;;2.43;2.33;;;-4.40;99.90;;;;;;4946834;28;20286;-89
2021/01/31 06:23:33;;;;;;;0.80;0.80;;;-4.30;99.90;;;;;;4943889;28;20228;-88
2021/01/31 06:25:59;;;;;;;0.77;0.77;;;-4.30;99.90;;;;;;4960287;28;20228;-88
2021/01/31 06:28:31;;;;;;;3.83;3.53;;;-4.40;99.90;;;;;;4960106;28;20271;-88
2021/01/31 06:31:15;;;;;;;4.83;4.07;;;-4.50;99.90;;;;;;4959974;28;20242;-88
2021/01/31 06:33:43;;;;;;;0.77;0.77;;;-4.70;99.90;;;;;;4961457;28;20176;-88
2021/01/31 06:36:15;;;;;;;3.20;2.97;;;-4.70;99.90;;;;;;4959892;28;20270;-88
2021/01/31 06:39:25;;;;;;;1.27;1.27;;;-4.60;99.90;;;;;;4976400;28;21416;-88
2021/01/31 06:41:57;;;;;;;1.87;1.70;;;-4.40;99.90;;;;;;4961047;28;20215;-88
2021/01/31 06:44:28;;;;;;;1.47;1.37;;;-4.40;99.90;;;;;;4959948;28;20255;-89
2021/01/31 06:47:14;;;;;;;3.10;2.90;;;-4.50;99.90;;;;;;4976372;28;20252;-88
2021/01/31 06:49:48;;;;;;;1.90;1.80;;;-4.60;99.90;;;;;;4959908;28;20343;-91
2021/01/31 06:52:37;;;;;;;4.70;2.73;;;-4.70;99.90;;;;;;4960637;28;20306;-88
2021/01/31 06:55:22;;;;;;;3.93;3.10;;;-4.80;99.90;;;;;;4961465;28;20208;-87
2021/01/31 06:58:20;;;;;;;4.77;2.70;;;-4.80;99.90;;;;;;4958606;28;20177;-88
2021/01/31 07:00:53;;;;;;;2.73;2.53;;;-4.70;99.90;;;;;;4960240;28;20189;-89
2021/01/31 07:03:22;;;;;;;0.87;0.87;;;-4.70;99.90;;;;;;4959718;28;20212;-87
2021/01/31 07:05:57;;;;;;;4.43;1.90;;;-4.60;99.90;;;;;;4961193;28;20225;-88
2021/01/31 07:08:44;;;;;;;2.67;2.57;;;-4.40;99.90;;;;;;4975441;28;20396;-90
2021/01/31 07:11:29;;;;;;;1.77;1.63;;;-4.40;99.90;;;;;;4961376;28;20224;-90
2021/01/31 07:14:23;;;;;;;1.90;1.80;;;-4.40;99.90;;;;;;4959504;28;20315;-88
2021/01/31 07:17:28;;;;;;;6.97;2.47;;;-4.40;99.90;;;;;;4958047;28;20220;-89
2021/01/31 07:20:00;;;;;;;1.83;1.80;;;-4.40;99.90;;;;;;4947187;28;20327;-89
2021/01/31 07:22:32;;;;;;;4.93;3.00;;;-4.40;99.90;;;;;;4958685;28;20213;-90
2021/01/31 07:25:06;;;;;;;5.07;3.00;;;-4.40;99.90;;;;;;4958714;28;20537;-87
2021/01/31 07:27:53;;;;;;;1.70;1.17;;;-4.40;99.90;;;;;;4961529;28;20590;-88
2021/01/31 07:30:28;;;;;;;3.40;2.90;;;-4.40;99.90;;;;;;4963119;28;20788;-90
2021/01/31 07:33:06;;;;;;;3.97;3.57;;;-3.80;99.90;;;;;;4963025;28;20752;-88
2021/01/31 07:36:06;;;;;;;3.27;2.83;;;-3.10;99.90;;;;;;4964645;28;20228;-88
2021/01/31 07:38:49;;;;;;;5.70;5.33;;;-2.40;99.90;;;;;;4963425;28;21246;-87
2021/01/31 07:41:16;;;;;;;8.97;6.30;;;-1.50;99.90;;;;;;4962288;28;20209;-89
2021/01/31 07:43:43;;;;;;;12.43;9.00;;;-0.50;99.90;;;;;;4962381;28;20221;-88
2021/01/31 07:46:12;;;;;;;9.60;7.70;;;0.20;99.90;;;;;;4962763;28;20566;-89
2021/01/31 07:48:56;;;;;;;4.80;4.50;;;0.70;99.90;;;;;;4965257;28;20212;-88
2021/01/31 07:51:27;;;;;;;6.13;4.80;;;0.10;99.90;;;;;;4961757;28;20224;-88
2021/01/31 07:53:55;;;;;;;5.50;4.43;;;0.00;99.90;;;;;;4963030;28;20820;-88
2021/01/31 07:56:26;;;;;;;4.00;3.63;;;-0.30;99.90;;;;;;4946563;28;20221;-87
2021/01/31 07:58:58;;;;;;;4.53;4.13;;;-0.60;99.90;;;;;;4962123;28;20275;-90
2021/01/31 08:01:39;;;;;;;14.40;9.13;;;0.20;99.90;;;;;;4961384;28;20359;-87
2021/01/31 08:04:17;;;;;;;12.87;11.67;;;1.30;99.90;;;;;;4975516;28;20236;-87
2021/01/31 08:06:42;;;;;;;7.87;5.53;;;1.90;99.90;;;;;;4959511;28;20238;-86
2021/01/31 08:09:27;;;;;;;7.10;5.00;;;1.90;99.90;;;;;;4958684;28;20347;-86
2021/01/31 08:12:12;;;;;;;6.03;4.77;;;2.10;99.90;;;;;;4960388;28;21264;-87
2021/01/31 08:15:01;;;;;;;10.80;4.87;;;2.70;99.90;;;;;;4959987;28;20232;-88
2021/01/31 08:17:54;;;;;;;10.07;8.10;;;3.50;99.90;;;;;;4960925;28;21125;-88
2021/01/31 08:20:26;;;;;;;3.97;3.77;;;4.30;99.90;;;;;;4959728;28;20696;-85
2021/01/31 08:22:53;;;;;;;4.77;4.13;;;4.60;99.90;;;;;;4958198;28;20224;-89
2021/01/31 08:25:18;;;;;;;6.80;6.07;;;4.50;99.90;;;;;;4961069;28;20229;-89
2021/01/31 08:27:53;;;;;;;4.27;3.87;;;4.90;99.90;;;;;;4960429;28;21063;-88
2021/01/31 08:30:22;;;;;;;5.80;5.30;;;5.20;99.90;;;;;;4961608;28;20279;-89
2021/01/31 08:33:06;;;;;;;5.40;5.00;;;5.90;99.90;;;;;;4977055;28;20231;-87
2021/01/31 08:35:41;;;;;;;4.47;3.93;;;5.50;99.90;;;;;;4960316;28;20232;-87
2021/01/31 08:38:16;;;;;;;2.43;2.30;;;4.80;99.90;;;;;;4961563;28;20228;-87
2021/01/31 08:41:02;;;;;;;11.57;5.73;;;3.40;99.90;;;;;;4961821;28;20224;-89
2021/01/31 08:43:42;;;;;;;6.70;4.53;;;1.70;99.90;;;;;;4966828;28;20678;-87
2021/01/31 08:46:27;;;;;;;7.33;4.53;;;0.70;99.90;;;;;;4962059;28;20267;-92
2021/01/31 08:49:12;;;;;;;11.47;8.27;;;0.50;99.90;;;;;;4961269;28;20314;-88
2021/01/31 08:51:42;;;;;;;5.33;4.77;;;0.60;99.90;;;;;;4962670;28;20247;-86
2021/01/31 08:54:13;;;;;;;4.63;3.40;;;0.50;99.90;;;;;;4959759;28;20238;-87
2021/01/31 08:56:46;;;;;;;5.53;5.10;;;0.40;99.90;;;;;;4961609;28;20236;-88
2021/01/31 08:59:17;;;;;;;9.83;3.50;;;0.40;99.90;;;;;;4959988;28;20213;-86
2021/01/31 09:02:16;;;;;;;3.07;2.87;;;0.30;99.90;;;;;;4952422;28;20245;-88
2021/01/31 09:05:00;;;;;;;2.97;1.93;;;0.20;99.90;;;;;;4925557;28;20229;-86
2021/01/31 09:07:33;;;;;;;2.53;2.10;;;-0.20;99.90;;;;;;4940673;29;20209;-87
2021/01/31 09:10:11;;;;;;;2.43;2.23;;;-0.40;99.90;;;;;;4956814;28;20191;-86
2021/01/31 09:12:37;;;;;;;4.10;2.70;;;-0.50;99.90;;;;;;4941294;29;20185;-87
2021/01/31 09:15:16;;;;;;;4.27;3.97;;;-0.50;99.90;;;;;;4937388;29;20706;-87
2021/01/31 09:17:42;;;;;;;8.17;3.20;;;-0.40;99.90;;;;;;4939464;29;20213;-87
2021/01/31 09:20:25;;;;;;;5.30;3.00;;;-0.30;99.90;;;;;;4939077;29;20261;-88
2021/01/31 09:22:54;;;;;;;1.57;1.47;;;-0.30;99.90;;;;;;4922998;29;20217;-87
2021/01/31 09:25:23;;;;;;;2.43;2.23;;;-0.40;99.90;;;;;;4924206;29;20239;-88
2021/01/31 09:28:05;;;;;;;3.83;3.53;;;-0.50;99.90;;;;;;4954996;28;21078;-88
2021/01/31 09:30:33;;;;;;;4.43;2.13;;;-0.40;99.90;;;;;;4940240;29;20322;-86
2021/01/31 09:33:06;;;;;;;3.77;3.17;;;-0.30;99.90;;;;;;4938813;28;20214;-86
2021/01/31 09:35:35;;;;;;;2.73;2.37;;;-0.20;99.90;;;;;;4937990;29;20228;-86
2021/01/31 09:38:16;;;;;;;2.83;2.63;;;-0.20;99.90;;;;;;4939772;29;20859;-86
2021/01/31 09:40:43;;;;;;;4.03;2.70;;;-0.10;99.90;;;;;;4955342;28;20213;-87
2021/01/31 09:43:20;;;;;;;2.83;2.43;;;-0.10;99.90;;;;;;4938297;28;20862;-86
2021/01/31 09:45:49;;;;;;;1.70;1.60;;;-0.10;99.90;;;;;;4939533;28;20557;-87
2021/01/31 09:48:19;;;;;;;3.40;3.13;;;0.00;99.90;;;;;;4939942;29;20248;-86
2021/01/31 09:50:51;;;;;;;2.43;1.20;;;-0.10;99.90;;;;;;4938128;29;20228;-87
2021/01/31 09:53:39;;;;;;;2.37;2.27;;;-0.10;99.90;;;;;;4937732;29;20214;-87
2021/01/31 09:56:34;;;;;;;3.60;3.33;;;-0.20;99.90;;;;;;4954886;28;20237;-87
2021/01/31 09:59:00;;;;;;;2.10;2.00;;;-0.20;99.90;;;;;;4918261;28;20225;-87
2021/01/31 10:01:31;;;;;;;3.90;1.93;;;-0.20;99.90;;;;;;4935866;29;20277;-88
2021/01/31 10:04:01;;;;;;;4.27;3.60;;;-0.10;99.90;;;;;;4953922;28;20190;-88
2021/01/31 10:06:29;;;;;;;2.33;2.23;;;-0.10;99.90;;;;;;4942315;28;20197;-86
2021/01/31 10:09:02;;;;;;;2.40;2.20;;;0.10;99.90;;;;;;4938895;28;20214;-88
2021/01/31 10:11:37;;;;;;;3.10;2.77;;;0.20;99.90;;;;;;4956356;28;21219;-89
2021/01/31 10:14:04;;;;;;;2.23;2.10;;;0.20;99.90;;;;;;4941360;28;20925;-88
2021/01/31 10:16:32;;;;;;;2.50;2.13;;;0.30;99.90;;;;;;4940387;28;20221;-88
2021/01/31 10:19:13;;;;;;;3.53;2.90;;;0.40;99.90;;;;;;4939986;28;20208;-89
2021/01/31 10:21:59;;;;;;;3.43;2.53;;;0.40;99.90;;;;;;4957748;28;20253;-89
2021/01/31 10:24:32;;;;;;;2.53;1.87;;;0.50;99.90;;;;;;4919942;29;20252;-89
2021/01/31 10:27:19;;;;;;;4.00;3.60;;;0.60;99.90;;;;;;4955628;28;20228;-88
2021/01/31 10:29:45;;;;;;;3.83;2.23;;;0.70;99.90;;;;;;4940042;29;20213;-88
2021/01/31 10:32:39;;;;;;;3.83;2.07;;;0.80;99.90;;;;;;4954256;28;21097;-87
2021/01/31 10:35:23;;;;;;;2.20;1.73;;;0.90;99.90;;;;;;4956108;28;20245;-89
2021/01/31 10:37:49;;;;;;;2.50;2.30;;;0.90;99.90;;;;;;4938477;28;20221;-87
2021/01/31 10:40:15;;;;;;;3.73;3.43;;;0.80;99.90;;;;;;4936834;29;20221;-87
2021/01/31 10:42:40;;;;;;;3.50;2.77;;;0.90;99.90;;;;;;4953734;28;20725;-88
2021/01/31 10:45:21;;;;;;;5.37;2.33;;;1.00;99.90;;;;;;4921388;29;20379;-87
2021/01/31 10:47:47;;;;;;;2.47;1.67;;;1.10;99.90;;;;;;4955182;28;20223;-88
2021/01/31 10:50:18;;;;;;;7.30;2.83;;;1.00;99.90;;;;;;4938742;28;20237;-88
2021/01/31 10:52:45;;;;;;;3.47;1.53;;;0.90;99.90;;;;;;4939473;28;20717;-87
2021/01/31 10:55:12;;;;;;;2.57;2.13;;;1.10;99.90;;;;;;4942462;29;20243;-89
2021/01/31 10:57:38;;;;;;;1.27;1.17;;;1.10;99.90;;;;;;4942742;28;20193;-89
2021/01/31 11:00:10;;;;;;;4.80;2.53;;;1.20;99.90;;;;;;4942339;28;20221;-88
2021/01/31 11:02:37;;;;;;;6.20;2.17;;;1.30;99.90;;;;;;4940293;28;20237;-88
2021/01/31 11:05:07;;;;;;;4.40;2.60;;;1.20;99.90;;;;;;4941355;28;20241;-86
2021/01/31 11:07:33;;;;;;;1.67;1.43;;;1.20;99.90;;;;;;4926650;28;20352;-87
2021/01/31 11:09:59;;;;;;;3.80;1.30;;;1.20;99.90;;;;;;4925863;28;20194;-87
2021/01/31 11:12:25;;;;;;;3.03;1.97;;;1.20;99.90;;;;;;4944821;29;20288;-87
2021/01/31 11:14:50;;;;;;;1.53;1.43;;;1.20;99.90;;;;;;4911242;29;20606;-87
2021/01/31 11:17:16;;;;;;;1.17;1.13;;;1.20;99.90;;;;;;4942751;29;21069;-88
2021/01/31 11:19:42;;;;;;;1.93;1.80;;;1.20;99.90;;;;;;4926755;29;20233;-88
2021/01/31 11:22:08;;;;;;;2.20;2.00;;;1.10;99.90;;;;;;4926330;28;20231;-87
2021/01/31 11:24:33;;;;;;;2.37;1.87;;;1.10;99.90;;;;;;4928224;29;20197;-87
2021/01/31 11:26:59;;;;;;;3.27;1.97;;;1.20;99.90;;;;;;4943197;28;20224;-87
2021/01/31 11:29:25;;;;;;;1.97;1.70;;;1.30;99.90;;;;;;4941336;28;20227;-88
2021/01/31 11:31:51;;;;;;;3.57;1.77;;;1.40;99.90;;;;;;4943354;29;20224;-87
2021/01/31 11:34:16;;;;;;;5.47;2.83;;;1.60;99.90;;;;;;4943358;28;20302;-88
2021/01/31 11:36:42;;;;;;;2.10;1.93;;;1.70;99.90;;;;;;4905516;29;20643;-88
2021/01/31 11:39:08;;;;;;;2.57;2.33;;;1.90;99.90;;;;;;4940509;28;20225;-88
2021/01/31 11:41:38;;;;;;;1.27;1.27;;;1.90;99.90;;;;;;4924773;29;20288;-87
2021/01/31 11:44:05;;;;;;;2.00;1.63;;;1.80;99.90;;;;;;4925413;29;20474;-89
2021/01/31 11:46:31;;;;;;;2.07;1.97;;;1.90;99.90;;;;;;4924917;29;20320;-86
2021/01/31 11:48:56;;;;;;;2.50;2.30;;;1.90;99.90;;;;;;4926652;28;20193;-87
2021/01/31 11:51:22;;;;;;;2.57;2.37;;;2.00;99.90;;;;;;4928874;29;20189;-88
2021/01/31 11:53:48;;;;;;;1.40;1.30;;;2.10;99.90;;;;;;4924336;29;20239;-87
2021/01/31 11:56:14;;;;;;;2.27;2.07;;;2.20;99.90;;;;;;4941597;28;20240;-87
2021/01/31 11:58:40;;;;;;;4.13;3.93;;;2.20;99.90;;;;;;4938761;28;20232;-89
2021/01/31 12:01:06;;;;;;;4.50;2.20;;;2.30;99.90;;;;;;4945250;28;20685;-89
2021/01/31 12:03:32;;;;;;;2.23;2.10;;;2.30;99.90;;;;;;4966200;28;20203;-88
2021/01/31 12:05:58;;;;;;;3.07;2.77;;;2.30;99.90;;;;;;4964453;28;20274;-87
2021/01/31 12:08:24;;;;;;;1.70;1.60;;;2.20;99.90;;;;;;4949676;28;20310;-88
2021/01/31 12:10:50;;;;;;;2.07;1.93;;;2.20;99.90;;;;;;4965040;28;20238;-87
2021/01/31 12:13:15;;;;;;;2.77;2.57;;;2.30;99.90;;;;;;4965385;28;20227;-88
2021/01/31 12:15:42;;;;;;;2.17;1.97;;;2.30;99.90;;;;;;4966347;28;21063;-87
2021/01/31 12:18:07;;;;;;;3.07;2.87;;;2.30;99.90;;;;;;4948745;28;20220;-87
2021/01/31 12:20:33;;;;;;;3.20;2.63;;;2.30;99.90;;;;;;4949880;28;20216;-88
2021/01/31 12:22:59;;;;;;;3.83;3.30;;;2.30;99.90;;;;;;4981896;28;20220;-88
2021/01/31 12:25:25;;;;;;;5.73;2.63;;;2.30;99.90;;;;;;4949544;28;20227;-88
2021/01/31 12:27:51;;;;;;;2.33;2.23;;;2.30;99.90;;;;;;4948022;28;20200;-88
2021/01/31 12:30:21;;;;;;;2.80;2.60;;;2.40;99.90;;;;;;4966117;28;20196;-88
2021/01/31 12:32:47;;;;;;;2.37;2.20;;;2.40;99.90;;;;;;4964593;28;20751;-89
2021/01/31 12:35:14;;;;;;;2.03;1.93;;;2.40;99.90;;;;;;4964654;28;20240;-88
2021/01/31 12:37:39;;;;;;;2.53;2.33;;;2.40;99.90;;;;;;4948391;28;20228;-87
2021/01/31 12:40:06;;;;;;;2.40;2.20;;;2.30;99.90;;;;;;4947464;28;20282;-86
2021/01/31 12:42:32;;;;;;;3.60;2.87;;;2.30;99.90;;;;;;4964736;28;20211;-87
2021/01/31 12:44:58;;;;;;;5.93;3.10;;;2.30;99.90;;;;;;4979208;28;20306;-86
2021/01/31 12:47:24;;;;;;;3.43;2.40;;;2.30;99.90;;;;;;4981313;28;20220;-87
2021/01/31 12:49:49;;;;;;;2.90;2.73;;;2.30;99.90;;;;;;4963459;28;20220;-87
2021/01/31 12:52:15;;;;;;;3.80;2.13;;;2.40;99.90;;;;;;4949026;28;20219;-87
2021/01/31 12:54:41;;;;;;;2.63;2.40;;;2.50;99.90;;;;;;4965946;28;20659;-87
2021/01/31 12:57:07;;;;;;;2.73;2.43;;;2.60;99.90;;;;;;4962576;28;20350;-87
2021/01/31 12:59:33;;;;;;;3.40;2.33;;;2.50;99.90;;;;;;4937667;28;20228;-87
2021/01/31 13:01:59;;;;;;;4.20;2.60;;;2.60;99.90;;;;;;4980784;28;20251;-86
2021/01/31 13:04:26;;;;;;;2.40;1.67;;;2.60;99.90;;;;;;4981031;28;20305;-87
2021/01/31 13:06:51;;;;;;;2.47;2.33;;;2.60;99.90;;;;;;4963395;28;20192;-87
2021/01/31 13:09:17;;;;;;;2.77;2.20;;;2.60;99.90;;;;;;4964607;28;20207;-87
2021/01/31 13:11:43;;;;;;;2.70;2.27;;;2.80;99.90;;;;;;4964256;28;20220;-86
2021/01/31 13:14:08;;;;;;;2.60;2.37;;;2.80;99.90;;;;;;4963938;28;20223;-89
2021/01/31 13:16:34;;;;;;;3.50;1.80;;;2.80;99.90;;;;;;4963704;28;20571;-88
2021/01/31 13:19:00;;;;;;;2.27;2.13;;;2.80;99.90;;;;;;4957374;28;20290;-87
2021/01/31 13:21:26;;;;;;;2.73;1.97;;;2.90;99.90;;;;;;4947108;28;20200;-88